sensor_id;sensor_type;location;lat;lon;timestamp;P1;durP1;ratioP1;P2;durP2;ratioP2
38465;SDS011;24244;51.950;5.902;2022-09-20T00:02:23;6.85;;;2.05;;
38465;SDS011;24244;51.950;5.902;2022-09-20T00:04:49;8.13;;;2.08;;
38465;SDS011;24244;51.950;5.902;2022-09-20T00:07:15;7.15;;;2.10;;
38465;SDS011;24244;51.950;5.902;2022-09-20T00:09:40;7.95;;;2.00;;
38465;SDS011;24244;51.950;5.902;2022-09-20T00:12:06;5.78;;;1.88;;
38465;SDS011;24244;51.950;5.902;2022-09-20T00:14:33;9.75;;;2.50;;
38465;SDS011;24244;51.950;5.902;2022-09-20T00:16:59;8.15;;;2.15;;
38465;SDS011;24244;51.950;5.902;2022-09-20T00:19:24;8.50;;;2.05;;
38465;SDS011;24244;51.950;5.902;2022-09-20T00:21:50;5.97;;;2.10;;
38465;SDS011;24244;51.950;5.902;2022-09-20T00:24:15;7.35;;;2.10;;
38465;SDS011;24244;51.950;5.902;2022-09-20T00:26:41;8.35;;;2.00;;
38465;SDS011;24244;51.950;5.902;2022-09-20T00:29:06;6.38;;;2.08;;
38465;SDS011;24244;51.950;5.902;2022-09-20T00:31:33;7.43;;;1.98;;
38465;SDS011;24244;51.950;5.902;2022-09-20T00:34:01;7.22;;;1.80;;
38465;SDS011;24244;51.950;5.902;2022-09-20T00:36:45;8.40;;;2.30;;
38465;SDS011;24244;51.950;5.902;2022-09-20T00:39:11;5.75;;;1.73;;
38465;SDS011;24244;51.950;5.902;2022-09-20T00:41:38;8.00;;;2.17;;
38465;SDS011;24244;51.950;5.902;2022-09-20T00:47:03;7.72;;;1.80;;
38465;SDS011;24244;51.950;5.902;2022-09-20T00:49:31;7.80;;;1.92;;
38465;SDS011;24244;51.950;5.902;2022-09-20T00:54:26;6.55;;;1.83;;
38465;SDS011;24244;51.950;5.902;2022-09-20T00:56:54;7.05;;;1.90;;
38465;SDS011;24244;51.950;5.902;2022-09-20T00:59:20;4.05;;;1.40;;
38465;SDS011;24244;51.950;5.902;2022-09-20T01:01:50;6.10;;;1.45;;
38465;SDS011;24244;51.950;5.902;2022-09-20T01:04:21;5.70;;;1.65;;
38465;SDS011;24244;51.950;5.902;2022-09-20T01:06:51;6.55;;;1.60;;
38465;SDS011;24244;51.950;5.902;2022-09-20T01:09:18;7.03;;;1.60;;
38465;SDS011;24244;51.950;5.902;2022-09-20T01:11:44;6.78;;;1.58;;
38465;SDS011;24244;51.950;5.902;2022-09-20T01:14:11;9.05;;;1.95;;
38465;SDS011;24244;51.950;5.902;2022-09-20T01:16:38;5.17;;;1.60;;
38465;SDS011;24244;51.950;5.902;2022-09-20T01:19:06;8.32;;;2.13;;
38465;SDS011;24244;51.950;5.902;2022-09-20T01:21:38;7.53;;;1.60;;
38465;SDS011;24244;51.950;5.902;2022-09-20T01:24:05;5.03;;;1.60;;
38465;SDS011;24244;51.950;5.902;2022-09-20T01:26:53;6.47;;;1.63;;
38465;SDS011;24244;51.950;5.902;2022-09-20T01:29:34;6.32;;;1.80;;
38465;SDS011;24244;51.950;5.902;2022-09-20T01:32:10;7.28;;;1.77;;
38465;SDS011;24244;51.950;5.902;2022-09-20T01:34:40;4.20;;;1.42;;
38465;SDS011;24244;51.950;5.902;2022-09-20T01:37:10;5.32;;;1.77;;
38465;SDS011;24244;51.950;5.902;2022-09-20T01:39:44;6.25;;;1.70;;
38465;SDS011;24244;51.950;5.902;2022-09-20T01:42:17;4.95;;;1.50;;
38465;SDS011;24244;51.950;5.902;2022-09-20T01:44:47;7.43;;;1.70;;
38465;SDS011;24244;51.950;5.902;2022-09-20T01:47:24;5.55;;;1.70;;
38465;SDS011;24244;51.950;5.902;2022-09-20T01:50:00;6.28;;;1.73;;
38465;SDS011;24244;51.950;5.902;2022-09-20T01:55:37;7.35;;;1.70;;
38465;SDS011;24244;51.950;5.902;2022-09-20T01:58:41;6.07;;;1.83;;
38465;SDS011;24244;51.950;5.902;2022-09-20T02:04:33;5.30;;;1.75;;
38465;SDS011;24244;51.950;5.902;2022-09-20T02:07:17;7.20;;;1.65;;
38465;SDS011;24244;51.950;5.902;2022-09-20T02:10:06;8.73;;;1.70;;
38465;SDS011;24244;51.950;5.902;2022-09-20T02:12:54;6.47;;;1.70;;
38465;SDS011;24244;51.950;5.902;2022-09-20T02:15:28;5.68;;;1.50;;
38465;SDS011;24244;51.950;5.902;2022-09-20T02:18:08;5.63;;;1.50;;
38465;SDS011;24244;51.950;5.902;2022-09-20T02:20:48;5.90;;;1.40;;
38465;SDS011;24244;51.950;5.902;2022-09-20T02:23:21;5.93;;;1.60;;
38465;SDS011;24244;51.950;5.902;2022-09-20T02:26:04;7.32;;;1.73;;
38465;SDS011;24244;51.950;5.902;2022-09-20T02:28:48;9.05;;;1.90;;
38465;SDS011;24244;51.950;5.902;2022-09-20T02:31:27;6.53;;;1.80;;
38465;SDS011;24244;51.950;5.902;2022-09-20T02:37:13;7.15;;;1.75;;
38465;SDS011;24244;51.950;5.902;2022-09-20T02:39:51;6.82;;;1.85;;
38465;SDS011;24244;51.950;5.902;2022-09-20T02:42:31;6.60;;;1.75;;
38465;SDS011;24244;51.950;5.902;2022-09-20T02:45:03;6.53;;;1.85;;
38465;SDS011;24244;51.950;5.902;2022-09-20T02:47:34;6.47;;;1.88;;
38465;SDS011;24244;51.950;5.902;2022-09-20T02:50:19;5.13;;;1.63;;
38465;SDS011;24244;51.950;5.902;2022-09-20T02:52:57;4.95;;;1.55;;
38465;SDS011;24244;51.950;5.902;2022-09-20T02:55:35;8.00;;;1.95;;
38465;SDS011;24244;51.950;5.902;2022-09-20T02:58:11;6.95;;;1.80;;
38465;SDS011;24244;51.950;5.902;2022-09-20T03:00:51;6.05;;;1.70;;
38465;SDS011;24244;51.950;5.902;2022-09-20T03:03:20;5.60;;;1.73;;
38465;SDS011;24244;51.950;5.902;2022-09-20T03:05:59;7.32;;;1.77;;
38465;SDS011;24244;51.950;5.902;2022-09-20T03:08:32;6.07;;;1.80;;
38465;SDS011;24244;51.950;5.902;2022-09-20T03:11:02;5.43;;;1.85;;
38465;SDS011;24244;51.950;5.902;2022-09-20T03:13:42;6.55;;;2.25;;
38465;SDS011;24244;51.950;5.902;2022-09-20T03:16:20;7.90;;;1.83;;
38465;SDS011;24244;51.950;5.902;2022-09-20T03:18:56;6.60;;;1.90;;
38465;SDS011;24244;51.950;5.902;2022-09-20T03:21:33;5.95;;;1.98;;
38465;SDS011;24244;51.950;5.902;2022-09-20T03:24:11;7.35;;;1.70;;
38465;SDS011;24244;51.950;5.902;2022-09-20T03:26:46;6.57;;;1.90;;
38465;SDS011;24244;51.950;5.902;2022-09-20T03:29:21;6.30;;;2.00;;
38465;SDS011;24244;51.950;5.902;2022-09-20T03:32:02;6.60;;;1.90;;
38465;SDS011;24244;51.950;5.902;2022-09-20T03:37:17;5.57;;;1.98;;
38465;SDS011;24244;51.950;5.902;2022-09-20T03:42:38;6.55;;;1.75;;
38465;SDS011;24244;51.950;5.902;2022-09-20T03:48:17;4.80;;;1.65;;
38465;SDS011;24244;51.950;5.902;2022-09-20T03:51:03;6.85;;;2.10;;
38465;SDS011;24244;51.950;5.902;2022-09-20T03:53:48;6.20;;;2.38;;
38465;SDS011;24244;51.950;5.902;2022-09-20T04:02:23;6.18;;;2.30;;
38465;SDS011;24244;51.950;5.902;2022-09-20T04:05:01;6.75;;;1.83;;
38465;SDS011;24244;51.950;5.902;2022-09-20T04:07:31;6.57;;;2.40;;
38465;SDS011;24244;51.950;5.902;2022-09-20T04:10:15;6.88;;;2.00;;
38465;SDS011;24244;51.950;5.902;2022-09-20T04:12:53;7.43;;;2.25;;
38465;SDS011;24244;51.950;5.902;2022-09-20T04:15:30;5.88;;;2.05;;
38465;SDS011;24244;51.950;5.902;2022-09-20T04:18:02;7.03;;;2.03;;
38465;SDS011;24244;51.950;5.902;2022-09-20T04:20:39;8.68;;;2.38;;
38465;SDS011;24244;51.950;5.902;2022-09-20T04:23:12;7.53;;;2.28;;
38465;SDS011;24244;51.950;5.902;2022-09-20T04:25:46;7.07;;;2.30;;
38465;SDS011;24244;51.950;5.902;2022-09-20T04:28:14;7.10;;;2.60;;
38465;SDS011;24244;51.950;5.902;2022-09-20T04:30:45;7.22;;;2.20;;
38465;SDS011;24244;51.950;5.902;2022-09-20T04:33:17;6.18;;;2.17;;
38465;SDS011;24244;51.950;5.902;2022-09-20T04:35:47;6.95;;;2.50;;
38465;SDS011;24244;51.950;5.902;2022-09-20T04:38:43;7.28;;;2.65;;
38465;SDS011;24244;51.950;5.902;2022-09-20T04:41:19;5.88;;;2.05;;
38465;SDS011;24244;51.950;5.902;2022-09-20T04:50:17;7.22;;;2.13;;
38465;SDS011;24244;51.950;5.902;2022-09-20T04:52:56;6.63;;;2.22;;
38465;SDS011;24244;51.950;5.902;2022-09-20T04:55:49;6.43;;;2.15;;
38465;SDS011;24244;51.950;5.902;2022-09-20T05:07:31;7.97;;;2.38;;
38465;SDS011;24244;51.950;5.902;2022-09-20T05:13:33;5.90;;;2.40;;
38465;SDS011;24244;51.950;5.902;2022-09-20T05:16:17;7.32;;;2.13;;
38465;SDS011;24244;51.950;5.902;2022-09-20T05:18:51;7.10;;;2.30;;
38465;SDS011;24244;51.950;5.902;2022-09-20T05:21:43;6.47;;;2.25;;
38465;SDS011;24244;51.950;5.902;2022-09-20T05:27:28;9.45;;;2.50;;
38465;SDS011;24244;51.950;5.902;2022-09-20T05:30:10;5.85;;;2.25;;
38465;SDS011;24244;51.950;5.902;2022-09-20T05:32:43;7.07;;;2.45;;
38465;SDS011;24244;51.950;5.902;2022-09-20T05:35:14;7.15;;;2.50;;
38465;SDS011;24244;51.950;5.902;2022-09-20T05:37:48;7.72;;;2.33;;
38465;SDS011;24244;51.950;5.902;2022-09-20T05:40:24;6.07;;;2.25;;
38465;SDS011;24244;51.950;5.902;2022-09-20T05:42:57;6.55;;;2.33;;
38465;SDS011;24244;51.950;5.902;2022-09-20T05:45:42;6.72;;;2.47;;
38465;SDS011;24244;51.950;5.902;2022-09-20T05:48:14;5.88;;;2.60;;
38465;SDS011;24244;51.950;5.902;2022-09-20T05:50:50;5.82;;;2.25;;
38465;SDS011;24244;51.950;5.902;2022-09-20T05:53:30;8.43;;;2.53;;
38465;SDS011;24244;51.950;5.902;2022-09-20T05:56:10;7.20;;;2.45;;
38465;SDS011;24244;51.950;5.902;2022-09-20T05:58:49;8.27;;;2.55;;
38465;SDS011;24244;51.950;5.902;2022-09-20T06:01:28;8.25;;;2.25;;
38465;SDS011;24244;51.950;5.902;2022-09-20T06:04:01;6.90;;;2.30;;
38465;SDS011;24244;51.950;5.902;2022-09-20T06:06:36;6.65;;;2.42;;
38465;SDS011;24244;51.950;5.902;2022-09-20T06:09:18;8.83;;;2.50;;
38465;SDS011;24244;51.950;5.902;2022-09-20T06:12:02;7.72;;;2.47;;
38465;SDS011;24244;51.950;5.902;2022-09-20T06:14:42;7.15;;;2.97;;
38465;SDS011;24244;51.950;5.902;2022-09-20T06:17:21;7.57;;;2.42;;
38465;SDS011;24244;51.950;5.902;2022-09-20T06:19:55;7.20;;;2.67;;
38465;SDS011;24244;51.950;5.902;2022-09-20T06:22:33;7.38;;;2.22;;
38465;SDS011;24244;51.950;5.902;2022-09-20T06:25:10;7.60;;;2.72;;
38465;SDS011;24244;51.950;5.902;2022-09-20T06:27:43;5.90;;;2.20;;
38465;SDS011;24244;51.950;5.902;2022-09-20T06:30:15;7.75;;;2.30;;
38465;SDS011;24244;51.950;5.902;2022-09-20T06:32:56;7.50;;;2.40;;
38465;SDS011;24244;51.950;5.902;2022-09-20T06:35:25;7.80;;;2.58;;
38465;SDS011;24244;51.950;5.902;2022-09-20T06:37:59;8.93;;;2.80;;
38465;SDS011;24244;51.950;5.902;2022-09-20T06:40:54;9.40;;;2.85;;
38465;SDS011;24244;51.950;5.902;2022-09-20T06:43:43;7.40;;;2.33;;
38465;SDS011;24244;51.950;5.902;2022-09-20T06:46:09;7.40;;;2.35;;
38465;SDS011;24244;51.950;5.902;2022-09-20T06:48:37;7.35;;;2.67;;
38465;SDS011;24244;51.950;5.902;2022-09-20T06:51:05;8.38;;;2.53;;
38465;SDS011;24244;51.950;5.902;2022-09-20T06:53:34;6.50;;;2.40;;
38465;SDS011;24244;51.950;5.902;2022-09-20T06:56:03;7.00;;;2.60;;
38465;SDS011;24244;51.950;5.902;2022-09-20T06:58:32;9.00;;;2.58;;
38465;SDS011;24244;51.950;5.902;2022-09-20T07:00:57;6.65;;;2.70;;
38465;SDS011;24244;51.950;5.902;2022-09-20T07:03:23;7.40;;;2.58;;
38465;SDS011;24244;51.950;5.902;2022-09-20T07:05:48;8.30;;;2.65;;
38465;SDS011;24244;51.950;5.902;2022-09-20T07:08:15;7.68;;;2.40;;
38465;SDS011;24244;51.950;5.902;2022-09-20T07:10:41;7.55;;;3.00;;
38465;SDS011;24244;51.950;5.902;2022-09-20T07:13:09;7.63;;;2.85;;
38465;SDS011;24244;51.950;5.902;2022-09-20T07:15:37;7.40;;;2.88;;
38465;SDS011;24244;51.950;5.902;2022-09-20T07:18:02;7.85;;;3.20;;
38465;SDS011;24244;51.950;5.902;2022-09-20T07:20:28;8.13;;;2.80;;
38465;SDS011;24244;51.950;5.902;2022-09-20T07:22:53;8.40;;;2.50;;
38465;SDS011;24244;51.950;5.902;2022-09-20T07:25:20;4.88;;;1.60;;
38465;SDS011;24244;51.950;5.902;2022-09-20T07:27:47;6.38;;;1.60;;
38465;SDS011;24244;51.950;5.902;2022-09-20T07:30:15;7.75;;;1.70;;
38465;SDS011;24244;51.950;5.902;2022-09-20T07:32:42;4.65;;;1.23;;
38465;SDS011;24244;51.950;5.902;2022-09-20T07:35:07;4.32;;;1.23;;
38465;SDS011;24244;51.950;5.902;2022-09-20T07:37:33;4.43;;;1.10;;
38465;SDS011;24244;51.950;5.902;2022-09-20T07:39:59;3.97;;;1.45;;
38465;SDS011;24244;51.950;5.902;2022-09-20T07:42:26;6.68;;;1.30;;
38465;SDS011;24244;51.950;5.902;2022-09-20T07:44:53;6.18;;;1.20;;
38465;SDS011;24244;51.950;5.902;2022-09-20T07:47:19;3.45;;;1.17;;
38465;SDS011;24244;51.950;5.902;2022-09-20T07:49:49;7.03;;;1.80;;
38465;SDS011;24244;51.950;5.902;2022-09-20T07:52:15;5.85;;;1.70;;
38465;SDS011;24244;51.950;5.902;2022-09-20T07:54:40;7.05;;;1.73;;
38465;SDS011;24244;51.950;5.902;2022-09-20T07:57:06;4.82;;;1.50;;
38465;SDS011;24244;51.950;5.902;2022-09-20T07:59:33;4.63;;;1.60;;
38465;SDS011;24244;51.950;5.902;2022-09-20T08:01:59;4.90;;;1.33;;
38465;SDS011;24244;51.950;5.902;2022-09-20T08:04:24;8.57;;;2.15;;
38465;SDS011;24244;51.950;5.902;2022-09-20T08:06:50;9.43;;;1.90;;
38465;SDS011;24244;51.950;5.902;2022-09-20T08:09:16;6.20;;;1.90;;
38465;SDS011;24244;51.950;5.902;2022-09-20T08:11:42;8.13;;;1.90;;
38465;SDS011;24244;51.950;5.902;2022-09-20T08:14:11;5.47;;;1.58;;
38465;SDS011;24244;51.950;5.902;2022-09-20T08:16:40;6.82;;;1.88;;
38465;SDS011;24244;51.950;5.902;2022-09-20T08:21:33;7.88;;;2.10;;
38465;SDS011;24244;51.950;5.902;2022-09-20T08:23:59;6.10;;;2.05;;
38465;SDS011;24244;51.950;5.902;2022-09-20T08:26:26;7.38;;;2.00;;
38465;SDS011;24244;51.950;5.902;2022-09-20T08:28:54;6.07;;;2.33;;
38465;SDS011;24244;51.950;5.902;2022-09-20T08:31:21;7.13;;;2.28;;
38465;SDS011;24244;51.950;5.902;2022-09-20T08:33:50;6.43;;;2.28;;
38465;SDS011;24244;51.950;5.902;2022-09-20T08:38:43;5.75;;;2.00;;
38465;SDS011;24244;51.950;5.902;2022-09-20T08:41:10;5.85;;;2.13;;
38465;SDS011;24244;51.950;5.902;2022-09-20T08:46:05;5.55;;;1.50;;
38465;SDS011;24244;51.950;5.902;2022-09-20T08:48:33;6.22;;;1.63;;
38465;SDS011;24244;51.950;5.902;2022-09-20T08:51:01;3.97;;;1.20;;
38465;SDS011;24244;51.950;5.902;2022-09-20T08:53:29;5.63;;;1.40;;
38465;SDS011;24244;51.950;5.902;2022-09-20T08:55:56;5.25;;;1.40;;
38465;SDS011;24244;51.950;5.902;2022-09-20T08:58:23;4.50;;;0.95;;
38465;SDS011;24244;51.950;5.902;2022-09-20T09:00:51;4.05;;;1.20;;
38465;SDS011;24244;51.950;5.902;2022-09-20T09:05:46;5.07;;;1.13;;
38465;SDS011;24244;51.950;5.902;2022-09-20T09:08:14;4.43;;;1.10;;
38465;SDS011;24244;51.950;5.902;2022-09-20T09:10:43;3.03;;;1.05;;
38465;SDS011;24244;51.950;5.902;2022-09-20T09:13:17;5.07;;;1.15;;
38465;SDS011;24244;51.950;5.902;2022-09-20T09:15:47;4.20;;;1.15;;
38465;SDS011;24244;51.950;5.902;2022-09-20T09:18:18;3.90;;;0.88;;
38465;SDS011;24244;51.950;5.902;2022-09-20T09:20:43;4.72;;;1.02;;
38465;SDS011;24244;51.950;5.902;2022-09-20T09:23:20;4.07;;;0.90;;
38465;SDS011;24244;51.950;5.902;2022-09-20T09:25:49;3.83;;;1.08;;
38465;SDS011;24244;51.950;5.902;2022-09-20T09:28:16;4.05;;;1.20;;
38465;SDS011;24244;51.950;5.902;2022-09-20T09:30:47;5.38;;;1.25;;
38465;SDS011;24244;51.950;5.902;2022-09-20T09:33:21;5.35;;;1.20;;
38465;SDS011;24244;51.950;5.902;2022-09-20T09:35:57;7.13;;;1.27;;
38465;SDS011;24244;51.950;5.902;2022-09-20T09:38:30;4.70;;;0.90;;
38465;SDS011;24244;51.950;5.902;2022-09-20T09:40:57;5.10;;;1.08;;
38465;SDS011;24244;51.950;5.902;2022-09-20T09:43:24;5.63;;;1.10;;
38465;SDS011;24244;51.950;5.902;2022-09-20T09:45:52;4.82;;;1.63;;
38465;SDS011;24244;51.950;5.902;2022-09-20T09:48:19;4.47;;;0.90;;
38465;SDS011;24244;51.950;5.902;2022-09-20T09:50:48;4.30;;;1.17;;
38465;SDS011;24244;51.950;5.902;2022-09-20T09:53:15;4.07;;;1.10;;
38465;SDS011;24244;51.950;5.902;2022-09-20T09:55:50;4.32;;;1.05;;
38465;SDS011;24244;51.950;5.902;2022-09-20T09:58:29;3.83;;;1.10;;
38465;SDS011;24244;51.950;5.902;2022-09-20T10:01:01;6.55;;;1.02;;
38465;SDS011;24244;51.950;5.902;2022-09-20T10:06:13;3.95;;;1.02;;
38465;SDS011;24244;51.950;5.902;2022-09-20T10:08:49;4.05;;;0.93;;
38465;SDS011;24244;51.950;5.902;2022-09-20T10:11:32;5.15;;;1.20;;
38465;SDS011;24244;51.950;5.902;2022-09-20T10:14:13;3.60;;;0.85;;
38465;SDS011;24244;51.950;5.902;2022-09-20T10:16:56;5.93;;;1.13;;
38465;SDS011;24244;51.950;5.902;2022-09-20T10:19:41;4.38;;;1.00;;
38465;SDS011;24244;51.950;5.902;2022-09-20T10:22:19;4.38;;;1.20;;
38465;SDS011;24244;51.950;5.902;2022-09-20T10:24:58;3.13;;;0.93;;
38465;SDS011;24244;51.950;5.902;2022-09-20T10:27:32;4.32;;;1.00;;
38465;SDS011;24244;51.950;5.902;2022-09-20T10:30:09;4.10;;;1.17;;
38465;SDS011;24244;51.950;5.902;2022-09-20T10:32:45;4.68;;;1.10;;
38465;SDS011;24244;51.950;5.902;2022-09-20T10:35:21;4.00;;;1.02;;
38465;SDS011;24244;51.950;5.902;2022-09-20T10:37:53;5.85;;;1.23;;
38465;SDS011;24244;51.950;5.902;2022-09-20T10:40:31;4.38;;;1.00;;
38465;SDS011;24244;51.950;5.902;2022-09-20T10:43:26;3.42;;;0.80;;
38465;SDS011;24244;51.950;5.902;2022-09-20T10:46:08;4.55;;;1.00;;
38465;SDS011;24244;51.950;5.902;2022-09-20T10:48:44;3.13;;;0.73;;
38465;SDS011;24244;51.950;5.902;2022-09-20T10:51:17;3.63;;;0.82;;
38465;SDS011;24244;51.950;5.902;2022-09-20T10:53:55;4.07;;;0.90;;
38465;SDS011;24244;51.950;5.902;2022-09-20T10:56:32;4.88;;;0.85;;
38465;SDS011;24244;51.950;5.902;2022-09-20T11:02:01;2.67;;;0.60;;
38465;SDS011;24244;51.950;5.902;2022-09-20T11:04:46;3.80;;;0.90;;
38465;SDS011;24244;51.950;5.902;2022-09-20T11:07:26;4.05;;;0.98;;
38465;SDS011;24244;51.950;5.902;2022-09-20T11:10:01;3.42;;;0.70;;
38465;SDS011;24244;51.950;5.902;2022-09-20T11:12:32;3.58;;;0.90;;
38465;SDS011;24244;51.950;5.902;2022-09-20T11:15:07;3.60;;;1.17;;
38465;SDS011;24244;51.950;5.902;2022-09-20T11:17:43;3.72;;;1.10;;
38465;SDS011;24244;51.950;5.902;2022-09-20T11:20:22;4.40;;;1.10;;
38465;SDS011;24244;51.950;5.902;2022-09-20T11:22:54;6.00;;;0.98;;
38465;SDS011;24244;51.950;5.902;2022-09-20T11:25:28;3.33;;;0.90;;
38465;SDS011;24244;51.950;5.902;2022-09-20T11:28:00;4.32;;;1.08;;
38465;SDS011;24244;51.950;5.902;2022-09-20T11:30:35;3.45;;;1.00;;
38465;SDS011;24244;51.950;5.902;2022-09-20T11:33:07;4.40;;;1.05;;
38465;SDS011;24244;51.950;5.902;2022-09-20T11:35:43;4.82;;;1.30;;
38465;SDS011;24244;51.950;5.902;2022-09-20T11:38:12;5.68;;;1.45;;
38465;SDS011;24244;51.950;5.902;2022-09-20T11:40:47;5.60;;;0.80;;
38465;SDS011;24244;51.950;5.902;2022-09-20T11:43:17;4.22;;;1.05;;
38465;SDS011;24244;51.950;5.902;2022-09-20T11:45:45;5.43;;;1.00;;
38465;SDS011;24244;51.950;5.902;2022-09-20T11:48:17;4.25;;;0.80;;
38465;SDS011;24244;51.950;5.902;2022-09-20T11:54:11;2.58;;;0.70;;
38465;SDS011;24244;51.950;5.902;2022-09-20T11:56:48;4.25;;;1.08;;
38465;SDS011;24244;51.950;5.902;2022-09-20T11:59:20;4.88;;;1.00;;
38465;SDS011;24244;51.950;5.902;2022-09-20T12:01:54;2.40;;;0.80;;
38465;SDS011;24244;51.950;5.902;2022-09-20T12:04:24;4.65;;;0.95;;
38465;SDS011;24244;51.950;5.902;2022-09-20T12:06:55;5.05;;;1.10;;
38465;SDS011;24244;51.950;5.902;2022-09-20T12:09:25;4.45;;;1.10;;
38465;SDS011;24244;51.950;5.902;2022-09-20T12:11:54;3.72;;;0.90;;
38465;SDS011;24244;51.950;5.902;2022-09-20T12:14:21;5.03;;;1.45;;
38465;SDS011;24244;51.950;5.902;2022-09-20T12:16:49;4.43;;;1.00;;
38465;SDS011;24244;51.950;5.902;2022-09-20T12:19:34;4.28;;;0.90;;
38465;SDS011;24244;51.950;5.902;2022-09-20T12:28:00;3.92;;;0.80;;
38465;SDS011;24244;51.950;5.902;2022-09-20T12:30:25;5.47;;;1.30;;
38465;SDS011;24244;51.950;5.902;2022-09-20T12:32:52;2.97;;;0.70;;
38465;SDS011;24244;51.950;5.902;2022-09-20T12:41:21;3.17;;;0.65;;
38465;SDS011;24244;51.950;5.902;2022-09-20T12:43:57;4.55;;;0.70;;
38465;SDS011;24244;51.950;5.902;2022-09-20T12:46:29;2.67;;;0.80;;
38465;SDS011;24244;51.950;5.902;2022-09-20T12:52:22;6.28;;;1.08;;
38465;SDS011;24244;51.950;5.902;2022-09-20T12:55:09;2.85;;;0.70;;
38465;SDS011;24244;51.950;5.902;2022-09-20T12:57:37;3.72;;;1.10;;
38465;SDS011;24244;51.950;5.902;2022-09-20T13:00:05;2.03;;;0.63;;
38465;SDS011;24244;51.950;5.902;2022-09-20T13:02:42;3.92;;;0.90;;
38465;SDS011;24244;51.950;5.902;2022-09-20T13:05:34;3.05;;;0.70;;
38465;SDS011;24244;51.950;5.902;2022-09-20T13:08:04;3.42;;;0.68;;
38465;SDS011;24244;51.950;5.902;2022-09-20T13:10:41;4.50;;;0.73;;
38465;SDS011;24244;51.950;5.902;2022-09-20T13:13:20;4.20;;;0.80;;
38465;SDS011;24244;51.950;5.902;2022-09-20T13:15:52;4.40;;;0.90;;
38465;SDS011;24244;51.950;5.902;2022-09-20T13:18:19;4.47;;;0.90;;
38465;SDS011;24244;51.950;5.902;2022-09-20T13:20:47;4.40;;;0.77;;
38465;SDS011;24244;51.950;5.902;2022-09-20T13:23:16;4.43;;;0.70;;
38465;SDS011;24244;51.950;5.902;2022-09-20T13:25:47;4.40;;;0.68;;
38465;SDS011;24244;51.950;5.902;2022-09-20T13:28:16;3.42;;;1.00;;
38465;SDS011;24244;51.950;5.902;2022-09-20T13:30:56;5.55;;;0.80;;
38465;SDS011;24244;51.950;5.902;2022-09-20T13:33:40;3.10;;;0.70;;
38465;SDS011;24244;51.950;5.902;2022-09-20T13:36:05;5.30;;;1.00;;
38465;SDS011;24244;51.950;5.902;2022-09-20T13:38:31;5.70;;;0.90;;
38465;SDS011;24244;51.950;5.902;2022-09-20T13:41:00;6.25;;;0.98;;
38465;SDS011;24244;51.950;5.902;2022-09-20T13:43:31;6.30;;;0.90;;
38465;SDS011;24244;51.950;5.902;2022-09-20T13:46:05;4.38;;;0.82;;
38465;SDS011;24244;51.950;5.902;2022-09-20T13:48:32;4.00;;;0.85;;
38465;SDS011;24244;51.950;5.902;2022-09-20T13:50:58;3.95;;;0.77;;
38465;SDS011;24244;51.950;5.902;2022-09-20T13:53:24;5.18;;;0.90;;
38465;SDS011;24244;51.950;5.902;2022-09-20T13:55:51;6.70;;;0.88;;
38465;SDS011;24244;51.950;5.902;2022-09-20T13:58:22;6.03;;;1.17;;
38465;SDS011;24244;51.950;5.902;2022-09-20T14:00:51;2.85;;;0.90;;
38465;SDS011;24244;51.950;5.902;2022-09-20T14:03:19;4.40;;;0.80;;
38465;SDS011;24244;51.950;5.902;2022-09-20T14:05:45;4.25;;;0.88;;
38465;SDS011;24244;51.950;5.902;2022-09-20T14:08:14;4.15;;;0.82;;
38465;SDS011;24244;51.950;5.902;2022-09-20T14:10:47;5.38;;;0.80;;
38465;SDS011;24244;51.950;5.902;2022-09-20T14:13:28;5.03;;;0.80;;
38465;SDS011;24244;51.950;5.902;2022-09-20T14:16:01;3.75;;;0.88;;
38465;SDS011;24244;51.950;5.902;2022-09-20T14:18:27;4.13;;;0.90;;
38465;SDS011;24244;51.950;5.902;2022-09-20T14:20:53;5.43;;;0.80;;
38465;SDS011;24244;51.950;5.902;2022-09-20T14:23:19;3.17;;;0.80;;
38465;SDS011;24244;51.950;5.902;2022-09-20T14:28:31;4.47;;;0.90;;
38465;SDS011;24244;51.950;5.902;2022-09-20T14:31:02;5.68;;;1.00;;
38465;SDS011;24244;51.950;5.902;2022-09-20T14:33:31;4.57;;;0.70;;
38465;SDS011;24244;51.950;5.902;2022-09-20T14:35:57;5.18;;;0.90;;
38465;SDS011;24244;51.950;5.902;2022-09-20T14:38:23;3.83;;;0.70;;
38465;SDS011;24244;51.950;5.902;2022-09-20T14:40:51;3.67;;;0.80;;
38465;SDS011;24244;51.950;5.902;2022-09-20T14:43:21;3.22;;;0.90;;
38465;SDS011;24244;51.950;5.902;2022-09-20T14:45:52;4.80;;;0.80;;
38465;SDS011;24244;51.950;5.902;2022-09-20T14:48:30;3.40;;;0.80;;
38465;SDS011;24244;51.950;5.902;2022-09-20T14:51:09;2.70;;;0.60;;
38465;SDS011;24244;51.950;5.902;2022-09-20T14:53:46;3.55;;;0.77;;
38465;SDS011;24244;51.950;5.902;2022-09-20T14:56:14;4.05;;;0.65;;
38465;SDS011;24244;51.950;5.902;2022-09-20T15:01:30;6.97;;;0.90;;
38465;SDS011;24244;51.950;5.902;2022-09-20T15:03:56;4.28;;;0.90;;
38465;SDS011;24244;51.950;5.902;2022-09-20T15:06:22;4.20;;;0.98;;
38465;SDS011;24244;51.950;5.902;2022-09-20T15:08:49;4.38;;;0.77;;
38465;SDS011;24244;51.950;5.902;2022-09-20T15:11:15;3.00;;;0.85;;
38465;SDS011;24244;51.950;5.902;2022-09-20T15:13:42;3.00;;;0.60;;
38465;SDS011;24244;51.950;5.902;2022-09-20T15:16:07;4.22;;;0.70;;
38465;SDS011;24244;51.950;5.902;2022-09-20T15:18:38;3.75;;;1.08;;
38465;SDS011;24244;51.950;5.902;2022-09-20T15:21:06;4.50;;;0.80;;
38465;SDS011;24244;51.950;5.902;2022-09-20T15:23:32;4.63;;;0.65;;
38465;SDS011;24244;51.950;5.902;2022-09-20T15:25:57;2.85;;;0.65;;
38465;SDS011;24244;51.950;5.902;2022-09-20T15:28:24;3.92;;;0.80;;
38465;SDS011;24244;51.950;5.902;2022-09-20T15:30:51;2.90;;;0.80;;
38465;SDS011;24244;51.950;5.902;2022-09-20T15:33:17;5.03;;;0.80;;
38465;SDS011;24244;51.950;5.902;2022-09-20T15:35:44;3.95;;;0.70;;
38465;SDS011;24244;51.950;5.902;2022-09-20T15:38:10;3.28;;;0.63;;
38465;SDS011;24244;51.950;5.902;2022-09-20T15:40:37;4.93;;;0.68;;
38465;SDS011;24244;51.950;5.902;2022-09-20T15:43:04;4.13;;;0.90;;
38465;SDS011;24244;51.950;5.902;2022-09-20T15:45:29;3.53;;;0.85;;
38465;SDS011;24244;51.950;5.902;2022-09-20T15:47:55;3.58;;;0.77;;
38465;SDS011;24244;51.950;5.902;2022-09-20T15:50:21;3.60;;;0.77;;
38465;SDS011;24244;51.950;5.902;2022-09-20T15:52:49;4.80;;;0.85;;
38465;SDS011;24244;51.950;5.902;2022-09-20T15:55:18;5.40;;;0.82;;
38465;SDS011;24244;51.950;5.902;2022-09-20T15:57:44;3.78;;;1.10;;
38465;SDS011;24244;51.950;5.902;2022-09-20T16:00:10;6.10;;;0.95;;
38465;SDS011;24244;51.950;5.902;2022-09-20T16:02:36;4.85;;;0.70;;
38465;SDS011;24244;51.950;5.902;2022-09-20T16:05:02;4.35;;;0.80;;
38465;SDS011;24244;51.950;5.902;2022-09-20T16:07:27;3.10;;;0.68;;
38465;SDS011;24244;51.950;5.902;2022-09-20T16:09:54;3.35;;;0.75;;
38465;SDS011;24244;51.950;5.902;2022-09-20T16:12:21;2.60;;;0.60;;
38465;SDS011;24244;51.950;5.902;2022-09-20T16:14:48;3.45;;;0.77;;
38465;SDS011;24244;51.950;5.902;2022-09-20T16:17:16;5.40;;;0.80;;
38465;SDS011;24244;51.950;5.902;2022-09-20T16:19:42;4.22;;;0.60;;
38465;SDS011;24244;51.950;5.902;2022-09-20T16:22:11;5.30;;;0.75;;
38465;SDS011;24244;51.950;5.902;2022-09-20T16:24:37;4.72;;;1.15;;
38465;SDS011;24244;51.950;5.902;2022-09-20T16:27:05;4.15;;;0.60;;
38465;SDS011;24244;51.950;5.902;2022-09-20T16:29:32;2.53;;;0.50;;
38465;SDS011;24244;51.950;5.902;2022-09-20T16:31:58;2.38;;;0.60;;
38465;SDS011;24244;51.950;5.902;2022-09-20T16:34:26;6.82;;;0.80;;
38465;SDS011;24244;51.950;5.902;2022-09-20T16:36:54;3.53;;;0.70;;
38465;SDS011;24244;51.950;5.902;2022-09-20T16:39:22;3.17;;;0.80;;
38465;SDS011;24244;51.950;5.902;2022-09-20T16:41:52;3.30;;;0.63;;
38465;SDS011;24244;51.950;5.902;2022-09-20T16:44:21;3.95;;;0.75;;
38465;SDS011;24244;51.950;5.902;2022-09-20T16:46:47;2.63;;;0.65;;
38465;SDS011;24244;51.950;5.902;2022-09-20T16:49:12;2.55;;;0.70;;